Time;durP1;ratioP1;P1;durP2;ratioP2;P2;SDS_P1;SDS_P2;PMS_P1;PMS_P2;Temp;Humidity;BMP_temperature;BMP_pressure;BME280_temperature;BME280_humidity;BME280_pressure;Samples;Min_cycle;Max_cycle;Signal;HPM_P1;HPM_P2
2023/07/25 00:09:08;;;;;;;;;;;17.10;99.90;;;;;;20847810;28;19924;-81
2023/07/25 00:19:09;;;;;;;;;;;17.10;99.90;;;;;;20983426;22;19924;-77
2023/07/25 00:29:09;;;;;;;;;;;16.80;99.90;;;;;;20995102;28;19921;-76
2023/07/25 00:39:11;;;;;;;;;;;16.70;99.90;;;;;;21006777;28;19919;-76
2023/07/25 00:49:11;;;;;;;;;;;16.70;99.90;;;;;;20970000;28;19927;-77
2023/07/25 00:59:12;;;;;;;;;;;16.80;99.90;;;;;;20984632;28;19916;-78
2023/07/25 01:09:14;;;;;;;;;;;16.60;99.90;;;;;;20971971;28;19952;-76
2023/07/25 01:19:17;;;;;;;;;;;16.40;99.90;;;;;;20969332;28;20301;-77
2023/07/25 01:29:18;;;;;;;;;;;16.50;99.90;;;;;;20982845;28;20278;-78
2023/07/25 01:39:18;;;;;;;;;;;16.60;99.90;;;;;;20971339;28;20007;-78
2023/07/25 01:49:19;;;;;;;;;;;16.60;99.90;;;;;;20956439;28;19916;-78
2023/07/25 01:59:20;;;;;;;;;;;16.60;99.90;;;;;;20989049;28;19913;-78
2023/07/25 02:09:20;;;;;;;;;;;16.50;99.90;;;;;;20974800;28;19931;-78
2023/07/25 02:19:21;;;;;;;;;;;16.50;99.90;;;;;;21003031;28;20394;-77
2023/07/25 02:29:22;;;;;;;;;;;16.50;99.90;;;;;;21017005;28;19923;-77
2023/07/25 02:39:22;;;;;;;;;;;16.60;99.90;;;;;;21004921;28;20311;-77
2023/07/25 02:49:23;;;;;;;;;;;16.50;99.90;;;;;;20999102;28;20379;-78
2023/07/25 02:59:24;;;;;;;;;;;16.60;99.90;;;;;;21013384;28;19923;-79
2023/07/25 03:09:24;;;;;;;;;;;16.50;99.90;;;;;;21020164;28;20389;-78
2023/07/25 03:19:25;;;;;;;;;;;16.50;99.90;;;;;;21000283;28;19916;-78
2023/07/25 03:29:26;;;;;;;;;;;16.70;99.90;;;;;;20998961;28;19917;-77
2023/07/25 03:39:26;;;;;;;;;;;16.70;99.90;;;;;;21017970;28;20030;-79
2023/07/25 03:49:27;;;;;;;;;;;16.70;99.90;;;;;;21007098;28;19942;-78
2023/07/25 03:59:28;;;;;;;;;;;16.70;99.90;;;;;;20999235;28;19950;-78
2023/07/25 04:09:28;;;;;;;;;;;16.70;99.90;;;;;;20988718;28;19923;-76
2023/07/25 04:19:29;;;;;;;;;;;16.80;99.90;;;;;;20996212;28;19970;-78
2023/07/25 04:29:30;;;;;;;;;;;16.80;99.90;;;;;;21004693;28;19962;-78
2023/07/25 04:39:30;;;;;;;;;;;16.80;99.90;;;;;;21004751;28;19917;-78
2023/07/25 04:49:31;;;;;;;;;;;16.70;99.90;;;;;;21006659;28;19917;-78
2023/07/25 04:59:32;;;;;;;;;;;16.70;99.90;;;;;;20991099;28;20382;-78
2023/07/25 05:09:33;;;;;;;;;;;16.80;99.90;;;;;;21013735;28;19920;-77
2023/07/25 05:19:33;;;;;;;;;;;16.90;99.90;;;;;;21003329;28;20371;-77
2023/07/25 05:29:34;;;;;;;;;;;17.00;99.90;;;;;;21001761;28;19931;-78
2023/07/25 05:39:35;;;;;;;;;;;17.20;99.90;;;;;;21008258;28;19920;-78
2023/07/25 05:49:35;;;;;;;;;;;17.00;99.90;;;;;;20992972;28;19955;-76
2023/07/25 05:59:36;;;;;;;;;;;17.00;99.90;;;;;;21008538;28;20436;-76
2023/07/25 06:09:37;;;;;;;;;;;17.30;99.90;;;;;;21010670;28;19917;-76
2023/07/25 06:19:37;;;;;;;;;;;18.00;99.90;;;;;;20889773;22;20024;-77
2023/07/25 06:29:38;;;;;;;;;;;18.00;99.90;;;;;;20765816;28;19921;-78
2023/07/25 06:39:39;;;;;;;;;;;18.30;99.90;;;;;;20763036;28;19920;-78
2023/07/25 06:49:40;;;;;;;;;;;18.50;99.90;;;;;;20740106;28;19921;-75
2023/07/25 06:59:40;;;;;;;;;;;19.00;99.90;;;;;;20743390;28;19968;-77
2023/07/25 07:09:41;;;;;;;;;;;19.30;99.90;;;;;;20730198;28;20008;-77
2023/07/25 07:19:42;;;;;;;;;;;19.30;99.90;;;;;;20711051;28;19924;-77
2023/07/25 07:29:42;;;;;;;;;;;19.40;99.90;;;;;;20728257;28;19918;-77
2023/07/25 07:39:43;;;;;;;;;;;19.60;99.90;;;;;;20732290;28;20045;-77
2023/07/25 07:49:44;;;;;;;;;;;19.40;99.90;;;;;;20738525;28;19922;-76
2023/07/25 07:59:44;;;;;;;;;;;19.20;99.90;;;;;;20707381;28;20304;-77
2023/07/25 08:09:45;;;;;;;;;;;20.00;99.90;;;;;;20775181;28;19918;-77
2023/07/25 08:19:46;;;;;;;;;;;20.30;99.90;;;;;;20711389;28;19925;-77
2023/07/25 08:29:46;;;;;;;;;;;21.20;99.90;;;;;;20682653;28;20354;-76
2023/07/25 08:39:47;;;;;;;;;;;20.60;99.90;;;;;;20746866;28;19920;-77
2023/07/25 08:49:51;;;;;;;;;;;21.30;99.90;;;;;;20756025;28;19929;-77
2023/07/25 08:59:52;;;;;;;;;;;21.70;99.90;;;;;;20746093;28;19918;-76
2023/07/25 09:09:53;;;;;;;;;;;22.00;99.90;;;;;;20749696;28;19917;-77
2023/07/25 09:19:54;;;;;;;;;;;21.40;99.90;;;;;;20754203;28;20065;-77
2023/07/25 09:29:55;;;;;;;;;;;22.00;99.90;;;;;;20753856;28;19928;-78
2023/07/25 09:39:56;;;;;;;;;;;21.90;99.90;;;;;;20755771;28;19960;-77
2023/07/25 09:49:57;;;;;;;;;;;22.60;99.90;;;;;;20753191;28;19917;-78
2023/07/25 09:59:58;;;;;;;;;;;22.20;99.90;;;;;;20751902;28;20426;-77
2023/07/25 10:09:59;;;;;;;;;;;20.10;99.90;;;;;;20757873;28;20371;-77
2023/07/25 10:20:04;;;;;;;;;;;19.10;99.90;;;;;;20754343;28;19956;-76
2023/07/25 10:30:21;;;;;;;;;;;19.10;99.90;;;;;;20755026;28;19972;-79
2023/07/25 10:40:25;;;;;;;;;;;19.40;99.90;;;;;;20747048;28;19936;-77
2023/07/25 10:50:27;;;;;;;;;;;21.00;99.90;;;;;;20764862;28;19951;-77
2023/07/25 11:00:34;;;;;;;;;;;20.80;99.90;;;;;;20763216;28;20343;-77
2023/07/25 11:10:35;;;;;;;;;;;21.70;99.90;;;;;;20714519;28;19925;-77
2023/07/25 11:20:35;;;;;;;;;;;22.00;99.90;;;;;;20683829;28;20008;-78
2023/07/25 11:30:42;;;;;;;;;;;22.60;99.90;;;;;;20684304;28;20294;-78
2023/07/25 11:40:42;;;;;;;;;;;21.70;99.90;;;;;;20750639;28;20299;-77
2023/07/25 11:50:43;;;;;;;;;;;22.20;99.90;;;;;;20766752;28;19917;-78
2023/07/25 12:00:48;;;;;;;;;;;21.50;99.90;;;;;;20801048;28;20269;-79
2023/07/25 12:10:49;;;;;;;;;;;22.00;99.90;;;;;;20780167;23;19972;-75
2023/07/25 12:20:50;;;;;;;;;;;20.90;99.90;;;;;;20810435;28;19957;-75
2023/07/25 12:30:50;;;;;;;;;;;21.80;99.90;;;;;;20748543;28;19975;-76
2023/07/25 12:40:51;;;;;;;;;;;19.80;99.90;;;;;;20722217;28;19922;-75
2023/07/25 12:50:52;;;;;;;;;;;17.40;99.90;;;;;;20740990;28;19917;-75
2023/07/25 13:00:52;;;;;;;;;;;16.90;99.90;;;;;;20728476;28;19936;-75
2023/07/25 13:10:53;;;;;;;;;;;17.30;99.90;;;;;;20690213;28;19957;-75
2023/07/25 13:20:54;;;;;;;;;;;17.80;99.90;;;;;;20665949;28;19979;-76
2023/07/25 13:30:57;;;;;;;;;;;18.60;99.90;;;;;;20669488;28;21304;-75
2023/07/25 13:40:58;;;;;;;;;;;19.50;99.90;;;;;;20725631;28;19913;-75
2023/07/25 13:50:59;;;;;;;;;;;19.60;99.90;;;;;;20697315;28;19925;-74
2023/07/25 14:00:59;;;;;;;;;;;18.90;99.90;;;;;;20725391;28;19914;-74
2023/07/25 14:11:00;;;;;;;;;;;18.60;99.90;;;;;;20728707;28;19918;-74
2023/07/25 14:21:01;;;;;;;;;;;19.40;99.90;;;;;;20734510;28;19940;-74
2023/07/25 14:31:01;;;;;;;;;;;20.10;99.90;;;;;;20743858;28;19917;-74
2023/07/25 14:41:02;;;;;;;;;;;20.10;99.90;;;;;;20756884;28;19924;-75
2023/07/25 14:51:03;;;;;;;;;;;20.70;99.90;;;;;;20724355;28;20323;-76
2023/07/25 15:01:03;;;;;;;;;;;20.50;99.90;;;;;;20742347;28;19922;-77
2023/07/25 15:11:04;;;;;;;;;;;19.90;99.90;;;;;;20748535;28;19918;-76
2023/07/25 15:21:05;;;;;;;;;;;19.90;99.90;;;;;;20745495;28;19920;-78
2023/07/25 15:31:06;;;;;;;;;;;20.00;99.90;;;;;;20756005;28;19917;-77
2023/07/25 15:41:07;;;;;;;;;;;20.70;99.90;;;;;;20756105;28;20004;-76
2023/07/25 15:51:07;;;;;;;;;;;19.80;99.90;;;;;;20709634;28;19924;-76
2023/07/25 16:01:08;;;;;;;;;;;19.40;99.90;;;;;;20714198;28;20511;-75
2023/07/25 16:11:09;;;;;;;;;;;19.10;99.90;;;;;;20686496;28;19996;-76
2023/07/25 16:21:09;;;;;;;;;;;19.00;99.90;;;;;;20715347;28;19913;-75
2023/07/25 16:31:10;;;;;;;;;;;18.40;99.90;;;;;;20724177;28;19917;-76
2023/07/25 16:41:11;;;;;;;;;;;17.00;99.90;;;;;;20722942;28;19913;-76
2023/07/25 16:51:12;;;;;;;;;;;16.00;99.90;;;;;;20735126;28;20300;-76
2023/07/25 17:01:13;;;;;;;;;;;15.60;99.90;;;;;;20724665;28;19921;-76
2023/07/25 17:11:15;;;;;;;;;;;15.40;99.90;;;;;;20712604;28;19918;-76
2023/07/25 17:21:15;;;;;;;;;;;15.40;99.90;;;;;;20732232;28;20009;-76
2023/07/25 17:31:16;;;;;;;;;;;15.30;99.90;;;;;;20710162;28;20399;-76
2023/07/25 17:41:17;;;;;;;;;;;15.10;99.90;;;;;;20745234;28;19949;-75
2023/07/25 17:51:18;;;;;;;;;;;14.90;99.90;;;;;;20754819;28;20371;-76
2023/07/25 18:01:19;;;;;;;;;;;14.90;99.90;;;;;;20760011;28;19922;-76
2023/07/25 18:21:29;;;;;;;;;;;14.60;99.90;;;;;;20843514;28;19925;-77
2023/07/25 18:31:29;;;;;;;;;;;14.50;99.90;;;;;;20847399;28;19928;-77
2023/07/25 18:41:30;;;;;;;;;;;14.20;99.90;;;;;;20841447;28;19913;-75
2023/07/25 18:51:31;;;;;;;;;;;14.20;99.90;;;;;;20837423;28;19921;-75
2023/07/25 19:01:33;;;;;;;;;;;14.10;99.90;;;;;;20828486;28;19913;-75
2023/07/25 19:11:34;;;;;;;;;;;14.10;99.90;;;;;;20835078;28;20424;-75
2023/07/25 19:21:35;;;;;;;;;;;14.00;99.90;;;;;;20835046;28;19947;-75
2023/07/25 19:31:35;;;;;;;;;;;14.00;99.90;;;;;;20832980;28;20332;-75
2023/07/25 19:41:36;;;;;;;;;;;14.00;99.90;;;;;;20833350;28;19940;-75
2023/07/25 19:51:37;;;;;;;;;;;13.90;99.90;;;;;;20802253;28;21271;-75
2023/07/25 20:01:37;;;;;;;;;;;13.80;99.90;;;;;;20799874;28;19940;-75
2023/07/25 20:11:38;;;;;;;;;;;13.80;99.90;;;;;;20795351;28;19917;-75
2023/07/25 20:21:39;;;;;;;;;;;14.10;99.90;;;;;;20794074;28;19999;-75
2023/07/25 20:31:39;;;;;;;;;;;13.90;99.90;;;;;;20794463;28;19971;-75
2023/07/25 20:41:40;;;;;;;;;;;13.90;99.90;;;;;;20789407;28;19913;-76
2023/07/25 20:51:41;;;;;;;;;;;13.80;99.90;;;;;;20766120;28;19960;-75
2023/07/25 21:01:42;;;;;;;;;;;13.70;99.90;;;;;;20787668;28;20295;-76
2023/07/25 21:11:42;;;;;;;;;;;13.60;99.90;;;;;;20785496;28;19918;-75
2023/07/25 21:21:43;;;;;;;;;;;13.60;99.90;;;;;;20813591;28;19936;-75
2023/07/25 21:31:44;;;;;;;;;;;13.50;99.90;;;;;;20808415;28;19917;-75
2023/07/25 21:41:46;;;;;;;;;;;13.50;99.90;;;;;;20818524;28;19966;-75
2023/07/25 21:51:47;;;;;;;;;;;13.50;99.90;;;;;;20817666;28;20012;-75
2023/07/25 22:01:50;;;;;;;;;;;13.50;99.90;;;;;;20824391;28;19959;-75
2023/07/25 22:11:50;;;;;;;;;;;13.50;99.90;;;;;;20811048;28;19928;-75
2023/07/25 22:21:51;;;;;;;;;;;13.50;99.90;;;;;;20832731;28;19914;-75
2023/07/25 22:31:52;;;;;;;;;;;13.50;99.90;;;;;;20823543;28;19939;-75
2023/07/25 22:41:52;;;;;;;;;;;13.40;99.90;;;;;;20826022;28;20081;-75
2023/07/25 22:51:53;;;;;;;;;;;13.50;99.90;;;;;;20830756;28;20020;-76
2023/07/25 23:01:54;;;;;;;;;;;13.60;99.90;;;;;;20825885;28;20016;-75
2023/07/25 23:11:54;;;;;;;;;;;13.50;99.90;;;;;;20834713;28;19953;-74
2023/07/25 23:21:55;;;;;;;;;;;13.40;99.90;;;;;;20826442;28;19917;-75
2023/07/25 23:31:55;;;;;;;;;;;13.40;99.90;;;;;;20833200;28;19971;-75
2023/07/25 23:41:56;;;;;;;;;;;13.20;99.90;;;;;;20832723;28;19913;-75
2023/07/25 23:51:57;;;;;;;;;;;13.10;99.90;;;;;;20830467;28;20417;-75
